Time;durP1;ratioP1;P1;durP2;ratioP2;P2;SDS_P1;SDS_P2;PMS_P1;PMS_P2;Temp;Humidity;BMP_temperature;BMP_pressure;BME280_temperature;BME280_humidity;BME280_pressure;Samples;Min_cycle;Max_cycle;Signal;HPM_P1;HPM_P2
2022/01/09 00:00:27;;;;;;;11.87;10.53;;;;;;;2.95;70.46;100572.06;5028817;28;20045;-82
2022/01/09 00:02:54;;;;;;;13.00;10.03;;;;;;;3.00;70.70;100587.53;5028774;28;20057;-81
2022/01/09 00:05:22;;;;;;;12.17;10.77;;;;;;;3.17;70.67;100616.25;5048147;28;20060;-80
2022/01/09 00:07:49;;;;;;;12.57;11.20;;;;;;;3.13;70.55;100606.91;5033814;28;20049;-82
2022/01/09 00:10:17;;;;;;;12.93;11.40;;;;;;;3.05;70.11;100580.25;5033929;28;20135;-83
2022/01/09 00:12:44;;;;;;;13.03;10.90;;;;;;;3.16;69.68;100593.59;5030355;28;20295;-80
2022/01/09 00:15:13;;;;;;;12.97;11.67;;;;;;;2.73;69.11;100512.16;5028909;28;20507;-81
2022/01/09 00:17:40;;;;;;;14.10;12.63;;;;;;;2.73;69.84;100511.31;5030814;28;20076;-80
2022/01/09 00:20:08;;;;;;;16.77;12.60;;;;;;;2.86;69.81;100527.16;5031600;28;20098;-82
2022/01/09 00:22:41;;;;;;;13.60;12.07;;;;;;;2.90;69.73;100541.81;5031652;28;20091;-81
2022/01/09 00:25:07;;;;;;;;;;;;;;;2.88;69.66;100543.66;5029133;28;20135;-82
2022/01/09 00:27:36;;;;;;;13.37;11.57;;;;;;;2.37;70.36;100474.94;5029639;28;19975;-80
2022/01/09 00:30:04;;;;;;;14.10;12.10;;;;;;;2.24;70.29;100457.31;5029976;28;20135;-82
2022/01/09 00:32:31;;;;;;;16.10;12.10;;;;;;;2.33;70.26;100477.75;5030036;28;20084;-81
2022/01/09 00:35:00;;;;;;;12.30;11.17;;;;;;;2.63;70.90;100546.84;5028686;28;20439;-80
2022/01/09 00:37:26;;;;;;;12.60;11.27;;;;;;;2.40;70.84;100535.03;5027650;28;20492;-82
2022/01/09 00:39:53;;;;;;;15.37;11.10;;;;;;;2.54;71.07;100574.41;5034086;28;20124;-83
2022/01/09 00:42:21;;;;;;;14.03;11.80;;;;;;;2.07;70.51;100500.16;5050918;28;20045;-81
2022/01/09 00:44:47;;;;;;;16.47;12.20;;;;;;;2.35;71.51;100553.63;5047861;28;20537;-82
2022/01/09 00:47:14;;;;;;;15.47;11.90;;;;;;;2.15;72.26;100536.41;5027480;28;20045;-81
2022/01/09 00:49:40;;;;;;;13.50;11.57;;;;;;;2.08;72.18;100508.84;5028366;28;20043;-79
2022/01/09 00:52:07;;;;;;;14.97;12.93;;;;;;;2.38;72.54;100548.25;5027508;28;20600;-81
2022/01/09 00:54:34;;;;;;;15.23;12.53;;;;;;;2.31;72.20;100520.69;5027043;28;20051;-82
2022/01/09 00:57:01;;;;;;;15.03;12.47;;;;;;;2.19;72.19;100487.31;5027179;28;20084;-81
2022/01/09 00:59:27;;;;;;;15.17;12.00;;;;;;;2.24;72.11;100490.53;5027667;28;20067;-80
2022/01/09 01:01:54;;;;;;;16.90;12.87;;;;;;;2.11;72.16;100453.69;5027695;28;20542;-81
2022/01/09 01:04:21;;;;;;;14.23;12.80;;;;;;;2.20;71.82;100463.66;5027619;28;20041;-80
2022/01/09 01:06:49;;;;;;;13.83;11.63;;;;;;;2.40;71.80;100487.88;5029714;28;20067;-81
2022/01/09 01:09:16;;;;;;;14.93;13.37;;;;;;;2.33;71.81;100469.03;5031383;28;20552;-81
2022/01/09 01:11:43;;;;;;;13.57;12.07;;;;;;;2.17;71.47;100448.09;5031852;28;20060;-82
2022/01/09 01:14:10;;;;;;;14.70;12.93;;;;;;;2.23;71.54;100453.00;5031605;28;20134;-81
2022/01/09 01:16:37;;;;;;;14.00;12.33;;;;;;;2.00;71.59;100422.88;5031777;28;20052;-80
2022/01/09 01:19:06;;;;;;;14.60;13.07;;;;;;;2.52;71.57;100497.66;5031022;28;20093;-81
2022/01/09 01:21:33;;;;;;;13.60;12.20;;;;;;;2.30;72.29;100450.88;5049301;28;20132;-81
2022/01/09 01:24:00;;;;;;;14.87;13.00;;;;;;;2.24;72.25;100415.41;5049465;28;20049;-81
2022/01/09 01:26:26;;;;;;;15.43;13.17;;;;;;;2.37;71.68;100430.41;5030986;28;20424;-82
2022/01/09 01:28:53;;;;;;;14.70;12.97;;;;;;;2.21;71.47;100415.59;5031652;28;20045;-82
2022/01/09 01:31:19;;;;;;;15.47;13.23;;;;;;;2.25;71.80;100418.84;5049381;28;20076;-82
2022/01/09 01:33:46;;;;;;;14.93;13.30;;;;;;;2.04;71.29;100394.72;5031251;28;20089;-82
2022/01/09 01:36:13;;;;;;;16.23;13.57;;;;;;;2.44;71.69;100471.88;5049321;28;20515;-81
2022/01/09 01:38:41;;;;;;;14.57;13.10;;;;;;;2.16;71.61;100443.81;5031680;28;20045;-81
2022/01/09 01:41:08;;;;;;;15.77;12.50;;;;;;;2.31;71.97;100479.63;5047812;28;20118;-81
2022/01/09 01:43:34;;;;;;;15.33;13.10;;;;;;;2.33;72.17;100483.00;5031202;28;20131;-80
2022/01/09 01:46:04;;;;;;;14.47;12.97;;;;;;;1.85;71.92;100393.16;5031161;28;20536;-80
2022/01/09 01:48:31;;;;;;;14.57;12.63;;;;;;;2.19;71.10;100435.78;5030421;28;20143;-80
2022/01/09 01:50:58;;;;;;;14.20;12.60;;;;;;;2.38;70.63;100474.00;5031038;28;20049;-81
2022/01/09 01:53:28;;;;;;;15.70;14.07;;;;;;;2.13;70.13;100417.78;5030276;28;20132;-81
2022/01/09 01:55:57;;;;;;;16.63;14.90;;;;;;;2.23;70.17;100442.50;5013862;28;20045;-81
2022/01/09 01:58:28;;;;;;;16.10;14.10;;;;;;;2.13;70.95;100439.56;5031076;28;20096;-81
2022/01/09 02:00:56;;;;;;;18.53;15.40;;;;;;;2.23;70.97;100450.38;5030522;28;20045;-81
2022/01/09 02:03:25;;;;;;;17.13;15.33;;;;;;;2.17;71.74;100434.19;5030723;28;20452;-81
2022/01/09 02:05:52;;;;;;;20.17;16.80;;;;;;;2.16;71.94;100427.22;5047416;28;20084;-81
2022/01/09 02:08:21;;;;;;;19.50;16.73;;;;;;;1.79;71.81;100371.72;5030668;28;20376;-81
2022/01/09 02:10:48;;;;;;;20.83;16.83;;;;;;;2.05;71.60;100420.00;5030557;28;20053;-82
2022/01/09 02:13:17;;;;;;;18.90;16.57;;;;;;;1.74;71.58;100369.34;5030812;28;20064;-82
2022/01/09 02:15:46;;;;;;;17.87;16.00;;;;;;;2.10;72.13;100426.66;5048675;28;20239;-81
2022/01/09 02:18:16;;;;;;;20.57;18.00;;;;;;;2.09;72.02;100411.03;5048629;28;20085;-82
2022/01/09 02:20:43;;;;;;;23.57;17.80;;;;;;;1.95;71.99;100369.09;5031008;28;20321;-80
2022/01/09 02:23:12;;;;;;;20.70;17.93;;;;;;;2.08;71.80;100393.63;5050450;28;20084;-81
2022/01/09 02:25:39;;;;;;;19.17;17.07;;;;;;;2.12;72.59;100395.16;5034377;28;20055;-82
2022/01/09 02:28:08;;;;;;;21.33;18.23;;;;;;;1.96;71.73;100362.91;5036308;28;20088;-82
2022/01/09 02:30:35;;;;;;;24.03;18.23;;;;;;;2.08;71.84;100373.53;5036508;28;20049;-82
2022/01/09 02:33:06;;;;;;;21.00;18.43;;;;;;;1.85;71.82;100332.94;5036410;28;20045;-83
2022/01/09 02:35:34;;;;;;;22.65;19.80;;;;;;;1.95;72.61;100342.91;5035139;28;20040;-82
2022/01/09 02:38:02;;;;;;;19.90;17.70;;;;;;;1.99;72.56;100337.41;5031569;28;20143;-82
2022/01/09 02:40:29;;;;;;;21.20;18.67;;;;;;;1.93;72.74;100317.63;5049386;28;20045;-82
2022/01/09 02:42:55;;;;;;;23.70;19.80;;;;;;;1.92;72.06;100278.47;5030553;28;20499;-82
2022/01/09 02:45:24;;;;;;;21.70;19.40;;;;;;;2.12;72.73;100322.66;5030522;28;20055;-81
2022/01/09 02:47:53;;;;;;;23.87;18.70;;;;;;;1.84;72.46;100276.28;5030403;28;20056;-82
2022/01/09 02:52:51;;;;;;;19.43;16.70;;;;;;;1.40;72.42;100235.19;5047789;28;20067;-81
2022/01/09 02:55:18;;;;;;;18.50;16.50;;;;;;;1.85;72.43;100305.94;5029823;28;20061;-81
2022/01/09 02:57:47;;;;;;;17.60;15.80;;;;;;;1.92;72.71;100305.50;5047934;28;20102;-82
2022/01/09 03:00:23;;;;;;;19.73;17.63;;;;;;;1.79;72.83;100283.56;5048207;28;20411;-81
2022/01/09 03:02:50;;;;;;;23.20;18.27;;;;;;;1.64;72.51;100253.03;5031907;28;20171;-81
2022/01/09 03:05:18;;;;;;;20.20;16.67;;;;;;;1.74;72.72;100248.97;5030428;28;20074;-81
2022/01/09 03:07:45;;;;;;;24.60;17.93;;;;;;;1.90;73.06;100281.19;5030050;28;20242;-81
2022/01/09 03:10:14;;;;;;;18.57;16.00;;;;;;;2.00;73.00;100291.13;5029714;28;20045;-82
2022/01/09 03:12:40;;;;;;;18.20;16.17;;;;;;;1.76;72.75;100262.81;5029670;28;20049;-82
2022/01/09 03:15:08;;;;;;;19.20;16.53;;;;;;;1.73;73.00;100262.16;5029579;28;20527;-82
2022/01/09 03:17:38;;;;;;;18.97;16.87;;;;;;;1.48;73.16;100225.16;5029628;28;20106;-82
2022/01/09 03:20:08;;;;;;;19.83;17.20;;;;;;;1.68;73.11;100278.94;5029540;28;20133;-81
2022/01/09 03:22:34;;;;;;;20.53;16.87;;;;;;;1.76;73.53;100296.00;5029378;28;20051;-80
2022/01/09 03:25:02;;;;;;;19.17;16.20;;;;;;;1.28;73.59;100188.81;5047094;28;20115;-81
2022/01/09 03:27:29;;;;;;;18.73;16.20;;;;;;;1.58;74.00;100230.69;5029566;28;20072;-81
2022/01/09 03:29:55;;;;;;;17.13;15.30;;;;;;;1.82;73.38;100232.81;5044491;28;20076;-82
2022/01/09 03:32:24;;;;;;;17.73;15.53;;;;;;;1.72;73.30;100214.19;5046786;28;20070;-81
2022/01/09 03:34:51;;;;;;;18.27;15.73;;;;;;;1.99;72.95;100223.97;5047155;28;20409;-83
2022/01/09 03:37:17;;;;;;;19.80;16.43;;;;;;;1.69;73.23;100172.50;5047395;28;20077;-81
2022/01/09 03:39:44;;;;;;;22.57;17.27;;;;;;;1.96;72.26;100164.78;5029124;28;20049;-82
2022/01/09 03:42:11;;;;;;;17.73;15.53;;;;;;;1.70;72.99;100137.56;5028938;28;20191;-81
2022/01/09 03:44:39;;;;;;;19.13;16.23;;;;;;;2.01;72.07;100182.81;5029028;28;20569;-81
2022/01/09 03:47:06;;;;;;;17.57;15.77;;;;;;;1.81;72.68;100174.38;5046465;28;20045;-80
2022/01/09 03:49:33;;;;;;;15.93;14.23;;;;;;;1.80;72.66;100157.00;5028751;28;20059;-81
2022/01/09 03:52:00;;;;;;;16.70;14.90;;;;;;;1.82;72.48;100189.19;5029208;28;20472;-80
2022/01/09 03:54:27;;;;;;;16.43;14.70;;;;;;;1.31;72.32;100120.66;5046395;28;20136;-83
2022/01/09 03:56:53;;;;;;;16.60;14.87;;;;;;;1.62;72.75;100182.47;5028699;28;20151;-81
2022/01/09 03:59:20;;;;;;;16.10;14.30;;;;;;;1.64;73.43;100191.06;5028791;28;20118;-81
2022/01/09 04:01:47;;;;;;;19.60;15.70;;;;;;;1.53;73.61;100167.34;5045923;28;20048;-80
2022/01/09 04:04:14;;;;;;;17.57;14.20;;;;;;;1.57;74.07;100174.06;5028525;28;20160;-80
2022/01/09 04:06:46;;;;;;;17.57;14.50;;;;;;;1.59;74.28;100179.22;5045325;28;20060;-81
2022/01/09 04:09:19;;;;;;;17.17;15.18;;;;;;;1.37;73.73;100153.44;5028405;28;20052;-81
2022/01/09 04:11:50;;;;;;;15.73;13.97;;;;;;;1.54;74.10;100169.00;5045933;28;20041;-80
2022/01/09 04:14:16;;;;;;;17.53;14.73;;;;;;;1.63;74.34;100154.56;5028433;28;20055;-81
2022/01/09 04:16:43;;;;;;;15.77;14.00;;;;;;;1.96;72.76;100132.53;5046094;28;20127;-82
2022/01/09 04:19:12;;;;;;;17.67;14.20;;;;;;;1.39;73.24;100057.44;5046049;28;20045;-81
2022/01/09 04:21:41;;;;;;;15.77;12.93;;;;;;;1.55;73.69;100065.19;5028301;28;20203;-81
2022/01/09 04:24:12;;;;;;;14.83;13.30;;;;;;;1.88;73.62;100109.44;5027946;28;20053;-82
2022/01/09 04:26:38;;;;;;;15.03;13.37;;;;;;;1.70;72.90;100090.47;5046030;28;20144;-79
2022/01/09 04:29:05;;;;;;;15.20;13.67;;;;;;;1.47;73.03;100063.88;5028050;28;20132;-80
2022/01/09 04:31:32;;;;;;;18.80;13.70;;;;;;;1.77;73.41;100141.47;5028220;28;20049;-81
2022/01/09 04:34:01;;;;;;;16.60;14.37;;;;;;;1.52;73.92;100131.63;5028093;28;20081;-81
2022/01/09 04:36:28;;;;;;;14.47;12.97;;;;;;;1.65;74.35;100169.22;5028083;28;20141;-81
2022/01/09 04:38:55;;;;;;;18.17;14.70;;;;;;;1.69;73.56;100172.50;5028838;28;20139;-81
2022/01/09 04:41:22;;;;;;;15.87;14.27;;;;;;;1.69;73.61;100181.19;5014876;28;20148;-82
2022/01/09 04:43:50;;;;;;;16.30;14.60;;;;;;;1.49;73.64;100153.56;5057528;28;20045;-83
2022/01/09 04:46:24;;;;;;;17.17;15.37;;;;;;;1.47;73.92;100137.13;5058013;28;20147;-82
2022/01/09 04:48:54;;;;;;;15.90;14.27;;;;;;;1.74;73.52;100175.69;5035789;28;20096;-81
2022/01/09 04:51:21;;;;;;;15.63;14.03;;;;;;;1.28;73.93;100097.28;5028995;28;20156;-81
2022/01/09 04:53:47;;;;;;;16.80;14.80;;;;;;;1.66;73.78;100151.75;5027561;28;20045;-81
2022/01/09 04:56:16;;;;;;;21.23;14.50;;;;;;;1.72;73.40;100127.81;5028395;28;20044;-81
2022/01/09 04:58:46;;;;;;;17.33;14.77;;;;;;;1.64;73.46;100099.50;5027965;28;20080;-82
2022/01/09 05:01:13;;;;;;;17.97;15.47;;;;;;;1.81;73.38;100114.19;5027905;28;20057;-81
2022/01/09 05:03:39;;;;;;;16.63;14.80;;;;;;;1.80;72.96;100122.16;5027490;28;20305;-80
2022/01/09 05:06:08;;;;;;;17.47;15.53;;;;;;;1.73;73.24;100116.44;5042040;28;20051;-81
2022/01/09 05:08:35;;;;;;;15.63;14.13;;;;;;;1.88;73.25;100141.69;5046103;28;20044;-81
2022/01/09 05:11:01;;;;;;;15.90;14.27;;;;;;;1.88;73.58;100162.63;5026983;28;20079;-81
2022/01/09 05:13:30;;;;;;;16.80;13.17;;;;;;;1.95;73.67;100177.97;5027132;28;20049;-81
2022/01/09 05:15:57;;;;;;;16.77;15.07;;;;;;;1.92;73.10;100164.13;5026812;28;20051;-80
2022/01/09 05:18:24;;;;;;;18.87;14.77;;;;;;;1.46;72.94;100090.97;5026829;28;20096;-80
2022/01/09 05:20:52;;;;;;;17.07;14.50;;;;;;;1.96;73.03;100153.47;5026376;28;20528;-81
2022/01/09 05:23:22;;;;;;;16.30;14.70;;;;;;;1.74;72.85;100114.66;5026564;28;20128;-81
2022/01/09 05:25:48;;;;;;;17.43;15.13;;;;;;;1.96;73.21;100163.94;5043927;28;20498;-81
2022/01/09 05:28:24;;;;;;;17.73;15.80;;;;;;;1.88;72.68;100144.28;5026398;28;20092;-82
2022/01/09 05:30:50;;;;;;;18.47;14.90;;;;;;;1.87;72.78;100158.34;5026558;28;20148;-81
2022/01/09 05:33:17;;;;;;;23.17;14.77;;;;;;;1.91;73.12;100166.81;5044309;28;20045;-82
2022/01/09 05:35:43;;;;;;;17.73;15.83;;;;;;;1.79;73.06;100157.09;5026457;28;20147;-81
2022/01/09 05:38:10;;;;;;;19.00;15.63;;;;;;;1.79;73.34;100163.16;5026701;28;20085;-82
2022/01/09 05:40:37;;;;;;;19.17;15.00;;;;;;;1.86;73.42;100167.09;5026850;28;20351;-81
2022/01/09 05:43:03;;;;;;;17.23;15.50;;;;;;;1.86;73.60;100158.41;5027732;28;20053;-81
2022/01/09 05:45:30;;;;;;;17.70;15.37;;;;;;;1.66;73.23;100134.25;5028044;28;20114;-81
2022/01/09 05:47:56;;;;;;;19.53;16.60;;;;;;;1.84;73.26;100182.03;5027543;28;20057;-81
2022/01/09 05:50:24;;;;;;;19.17;15.47;;;;;;;1.47;73.25;100129.28;5027480;28;20136;-81
2022/01/09 05:52:50;;;;;;;19.33;16.90;;;;;;;1.61;73.29;100138.94;5047218;28;20526;-81
2022/01/09 05:55:17;;;;;;;18.47;15.77;;;;;;;1.82;73.49;100176.09;5047549;28;20571;-81
2022/01/09 05:57:44;;;;;;;17.10;15.30;;;;;;;1.79;74.07;100163.16;5031276;28;20080;-81
2022/01/09 06:00:11;;;;;;;17.67;15.77;;;;;;;1.80;73.67;100154.38;5048541;28;20496;-81
2022/01/09 06:02:38;;;;;;;21.77;15.70;;;;;;;1.42;73.96;100086.00;5030767;28;20068;-80
2022/01/09 06:05:07;;;;;;;18.27;16.33;;;;;;;1.83;73.64;100158.59;5048596;28;20059;-80
2022/01/09 06:07:37;;;;;;;17.47;15.30;;;;;;;1.80;73.37;100167.47;5030792;28;20296;-80
2022/01/09 06:10:04;;;;;;;18.50;16.50;;;;;;;1.85;73.32;100175.91;5030738;28;20187;-81
2022/01/09 06:12:31;;;;;;;21.27;17.20;;;;;;;1.65;73.81;100145.69;5030583;28;20640;-78
2022/01/09 06:14:59;;;;;;;17.80;15.40;;;;;;;1.59;74.25;100134.72;5029157;28;20155;-80
2022/01/09 06:17:26;;;;;;;19.77;17.63;;;;;;;1.55;74.00;100112.28;5044477;28;20467;-81
2022/01/09 06:19:53;;;;;;;19.60;17.27;;;;;;;1.82;73.43;100157.75;5028570;28;20232;-81
2022/01/09 06:22:20;;;;;;;22.13;18.10;;;;;;;1.75;73.14;100129.41;5028222;28;20107;-80
2022/01/09 06:24:47;;;;;;;21.37;18.43;;;;;;;1.70;73.78;100154.09;5027950;28;20369;-81
2022/01/09 06:27:14;;;;;;;24.50;20.93;;;;;;;1.65;74.33;100150.91;5046412;28;20063;-82
2022/01/09 06:29:40;;;;;;;27.20;19.53;;;;;;;1.66;73.71;100159.59;5029205;28;20056;-80
2022/01/09 06:32:07;;;;;;;22.97;20.03;;;;;;;1.66;73.86;100146.50;5029430;28;20059;-81
2022/01/09 06:34:34;;;;;;;25.07;21.47;;;;;;;1.47;73.48;100124.03;5029691;28;20067;-82
2022/01/09 06:37:01;;;;;;;24.30;21.63;;;;;;;1.36;74.33;100110.78;5029942;28;20141;-82
2022/01/09 06:39:28;;;;;;;23.90;21.00;;;;;;;1.54;74.30;100142.84;5046819;28;20147;-81
2022/01/09 06:41:55;;;;;;;23.03;20.03;;;;;;;1.57;74.30;100147.06;5029846;28;20059;-81
2022/01/09 06:44:21;;;;;;;25.30;22.43;;;;;;;1.57;74.05;100152.28;5029125;28;20138;-81
2022/01/09 06:46:48;;;;;;;27.53;22.97;;;;;;;1.41;74.74;100144.50;5029858;28;20133;-81
2022/01/09 06:49:14;;;;;;;25.40;21.97;;;;;;;1.30;74.99;100142.50;5029844;28;20175;-81
2022/01/09 06:51:41;;;;;;;26.23;23.33;;;;;;;1.43;74.95;100159.19;5050517;28;20140;-81
2022/01/09 06:54:08;;;;;;;29.90;24.07;;;;;;;1.38;74.60;100169.03;5034543;28;20076;-82
2022/01/09 06:56:34;;;;;;;30.93;27.13;;;;;;;1.52;75.05;100175.25;5047496;28;20052;-81
2022/01/09 06:59:01;;;;;;;31.63;27.60;;;;;;;1.50;74.87;100167.50;5029197;28;20172;-80
2022/01/09 07:01:28;;;;;;;35.70;29.30;;;;;;;1.32;76.06;100172.03;5028362;28;20412;-80
2022/01/09 07:03:54;;;;;;;34.13;28.37;;;;;;;0.89;75.80;100093.41;5051538;28;20513;-80
2022/01/09 07:06:21;;;;;;;36.60;29.87;;;;;;;1.14;75.37;100144.28;5032341;28;20519;-81
2022/01/09 07:08:48;;;;;;;33.47;28.93;;;;;;;1.28;76.29;100181.78;5028458;28;20132;-82
2022/01/09 07:11:14;;;;;;;35.87;29.33;;;;;;;0.74;76.06;100089.06;5032503;28;20050;-81
2022/01/09 07:13:41;;;;;;;35.73;30.37;;;;;;;1.14;76.13;100154.75;5047827;28;20052;-82
2022/01/09 07:16:08;;;;;;;32.27;28.77;;;;;;;1.36;76.49;100186.63;5049453;28;20216;-82
2022/01/09 07:18:35;;;;;;;36.03;28.97;;;;;;;1.31;76.81;100187.78;5049597;28;20083;-81
2022/01/09 07:21:03;;;;;;;33.83;28.87;;;;;;;0.32;77.29;100035.69;5049725;28;20076;-81
2022/01/09 07:23:30;;;;;;;33.20;28.60;;;;;;;1.19;77.06;100181.47;5067129;28;20071;-81
2022/01/09 07:25:57;;;;;;;33.40;29.60;;;;;;;1.25;77.24;100178.53;5048012;28;20046;-81
2022/01/09 07:28:24;;;;;;;34.63;27.87;;;;;;;1.14;76.83;100154.75;5048155;28;20048;-83
2022/01/09 07:30:50;;;;;;;32.43;27.77;;;;;;;1.35;76.57;100195.38;5065199;28;20411;-82
2022/01/09 07:33:19;;;;;;;34.40;30.47;;;;;;;1.17;76.64;100170.28;5065453;28;20140;-82
2022/01/09 07:35:46;;;;;;;37.03;31.00;;;;;;;1.25;77.05;100189.00;5047206;28;20384;-80
2022/01/09 07:38:12;;;;;;;35.70;31.50;;;;;;;1.08;76.63;100131.59;5047406;28;20053;-80
2022/01/09 07:40:42;;;;;;;31.87;28.37;;;;;;;1.36;76.97;100197.09;5048851;28;20052;-81
2022/01/09 07:43:08;;;;;;;36.33;29.63;;;;;;;1.48;76.92;100219.91;5049192;28;20051;-81
2022/01/09 07:45:35;;;;;;;34.27;29.80;;;;;;;0.81;76.45;100108.69;5048925;28;20052;-80
2022/01/09 07:48:02;;;;;;;32.73;28.97;;;;;;;1.16;76.99;100179.03;5049418;28;20055;-80
2022/01/09 07:50:29;;;;;;;34.97;29.27;;;;;;;1.42;77.36;100215.03;5052046;28;20048;-82
2022/01/09 07:52:57;;;;;;;33.13;28.77;;;;;;;1.20;76.74;100167.50;5058044;28;20112;-83
2022/01/09 07:55:24;;;;;;;39.37;30.40;;;;;;;0.99;76.83;100131.16;5072764;28;20048;-80
2022/01/09 07:57:51;;;;;;;33.90;30.17;;;;;;;1.45;76.76;100207.00;5049263;28;20071;-82
2022/01/09 08:00:19;;;;;;;32.80;29.20;;;;;;;1.52;77.26;100217.94;5049063;28;20044;-80
2022/01/09 08:02:47;;;;;;;32.73;29.13;;;;;;;1.64;76.29;100219.03;5066245;28;20139;-82
2022/01/09 08:05:15;;;;;;;40.93;29.50;;;;;;;1.58;77.38;100217.63;5066428;28;20056;-80
2022/01/09 08:07:42;;;;;;;35.63;31.33;;;;;;;1.58;77.00;100214.13;5048836;28;20052;-80
2022/01/09 08:10:09;;;;;;;37.23;32.03;;;;;;;1.29;77.46;100174.81;5035312;28;20389;-80
2022/01/09 08:12:37;;;;;;;34.13;29.13;;;;;;;1.35;77.42;100174.44;5028525;28;20045;-81
2022/01/09 08:15:05;;;;;;;35.67;29.80;;;;;;;1.63;77.06;100201.66;5028057;28;20492;-80
2022/01/09 08:17:31;;;;;;;38.33;31.07;;;;;;;1.63;76.33;100201.66;5028694;28;20128;-81
2022/01/09 08:19:58;;;;;;;38.43;31.90;;;;;;;1.63;76.75;100204.28;5028652;28;20045;-82
2022/01/09 08:22:29;;;;;;;36.33;32.03;;;;;;;1.63;76.56;100193.81;5028589;28;20638;-81
2022/01/09 08:24:56;;;;;;;38.77;32.00;;;;;;;1.55;77.11;100196.00;5028503;28;20127;-81
2022/01/09 08:27:23;;;;;;;37.83;33.03;;;;;;;1.56;77.32;100182.00;5028266;28;20051;-82
2022/01/09 08:29:50;;;;;;;38.90;32.13;;;;;;;1.41;77.26;100147.97;5028603;28;20064;-81
2022/01/09 08:32:16;;;;;;;38.40;32.97;;;;;;;1.53;77.36;100176.94;5028023;28;20484;-82
2022/01/09 08:34:43;;;;;;;40.47;32.97;;;;;;;1.50;77.95;100177.94;5028479;28;20323;-82
2022/01/09 08:37:12;;;;;;;37.77;32.37;;;;;;;1.49;77.85;100171.06;5044769;28;20103;-80
2022/01/09 08:39:41;;;;;;;40.40;33.30;;;;;;;1.62;77.42;100182.47;5028109;28;20053;-81
2022/01/09 08:42:08;;;;;;;41.73;33.63;;;;;;;1.74;77.47;100207.09;5028345;28;20146;-81
2022/01/09 08:44:36;;;;;;;34.83;31.27;;;;;;;1.48;76.81;100170.22;5027649;28;20543;-81
2022/01/09 08:47:07;;;;;;;38.97;33.77;;;;;;;1.42;77.04;100160.09;5028382;28;20053;-82
2022/01/09 08:49:34;;;;;;;42.03;33.87;;;;;;;1.69;77.24;100196.88;5046123;28;20045;-81
2022/01/09 08:52:08;;;;;;;38.10;32.73;;;;;;;1.83;76.87;100210.94;5028754;28;20136;-82
2022/01/09 08:54:35;;;;;;;39.80;32.53;;;;;;;1.47;77.09;100151.97;5046176;28;20220;-83
2022/01/09 08:57:02;;;;;;;43.47;35.13;;;;;;;1.73;77.36;100205.41;5028430;28;20055;-80
2022/01/09 08:59:28;;;;;;;39.90;32.17;;;;;;;1.72;77.14;100188.00;5044536;28;20141;-81
2022/01/09 09:01:56;;;;;;;41.67;32.07;;;;;;;1.83;76.41;100205.72;5027757;28;20057;-80
2022/01/09 09:04:24;;;;;;;39.63;32.70;;;;;;;1.59;77.04;100177.44;5046355;28;20126;-81
2022/01/09 09:06:52;;;;;;;41.37;34.33;;;;;;;1.91;76.94;100222.63;5028652;28;20045;-79
2022/01/09 09:09:18;;;;;;;40.17;34.00;;;;;;;1.95;76.55;100225.09;5026171;28;20126;-81
2022/01/09 09:11:45;;;;;;;41.07;33.47;;;;;;;1.31;76.87;100118.03;5028380;28;20380;-80
2022/01/09 09:14:12;;;;;;;39.37;31.97;;;;;;;1.83;76.58;100187.41;5028212;28;20045;-81
2022/01/09 09:16:39;;;;;;;41.67;32.77;;;;;;;1.83;77.21;100203.09;5027974;28;20084;-81
2022/01/09 09:19:05;;;;;;;36.60;31.40;;;;;;;1.94;77.23;100219.00;5027670;28;20056;-81
2022/01/09 09:21:34;;;;;;;37.53;30.93;;;;;;;2.01;76.93;100224.72;5028028;28;20148;-82
2022/01/09 09:24:01;;;;;;;34.30;30.67;;;;;;;2.06;76.88;100223.53;5028165;28;20053;-80
2022/01/09 09:26:27;;;;;;;34.80;30.20;;;;;;;2.13;76.50;100208.28;5046969;28;20080;-80
2022/01/09 09:28:54;;;;;;;41.07;31.70;;;;;;;2.18;76.67;100221.09;5031774;28;20056;-81
2022/01/09 09:31:20;;;;;;;34.43;30.17;;;;;;;2.23;76.23;100225.09;5031615;28;20049;-80
2022/01/09 09:33:47;;;;;;;40.50;31.33;;;;;;;1.88;75.41;100138.22;5031493;28;20605;-80
2022/01/09 09:36:14;;;;;;;34.43;30.07;;;;;;;2.24;75.45;100205.84;5031528;28;20092;-80
2022/01/09 09:38:40;;;;;;;45.03;32.13;;;;;;;1.18;75.40;100041.22;5031358;28;20156;-80
2022/01/09 09:41:07;;;;;;;38.40;31.77;;;;;;;2.28;75.90;100211.75;5033775;28;20085;-80
2022/01/09 09:43:34;;;;;;;36.93;30.87;;;;;;;2.02;76.13;100166.19;5051430;28;20139;-80
2022/01/09 09:46:02;;;;;;;37.33;31.10;;;;;;;1.57;76.67;100102.56;5051710;28;20136;-80
2022/01/09 09:48:29;;;;;;;38.87;29.43;;;;;;;2.21;76.86;100190.34;5051294;28;20044;-80
2022/01/09 09:50:56;;;;;;;37.37;30.60;;;;;;;2.09;76.63;100170.97;5051150;28;20094;-81
2022/01/09 09:53:23;;;;;;;35.47;30.17;;;;;;;2.22;76.75;100175.47;5051285;28;20135;-81
2022/01/09 09:55:53;;;;;;;37.23;30.97;;;;;;;2.09;76.84;100164.91;5069427;28;20048;-81
2022/01/09 09:58:22;;;;;;;34.97;30.17;;;;;;;2.41;76.79;100227.56;5051032;28;20345;-82
2022/01/09 10:00:56;;;;;;;37.37;31.67;;;;;;;1.91;77.83;100154.56;5051556;28;20090;-81
2022/01/09 10:03:28;;;;;;;37.37;32.10;;;;;;;2.41;77.08;100238.06;5050983;28;20151;-81
2022/01/09 10:05:55;;;;;;;36.63;30.23;;;;;;;2.30;77.43;100218.56;5051002;28;20056;-83
2022/01/09 10:08:35;;;;;;;44.47;33.80;;;;;;;2.29;78.49;100216.91;5051146;28;20079;-81
2022/01/09 10:11:40;;;;;;;37.83;32.23;;;;;;;2.25;78.15;100212.78;5011414;28;20069;-83
2022/01/09 10:14:12;;;;;;;38.90;34.57;;;;;;;2.18;77.50;100195.75;5016661;28;20071;-83
2022/01/09 10:16:39;;;;;;;43.70;34.83;;;;;;;2.19;78.13;100212.31;5011104;28;20054;-82
2022/01/09 10:19:39;;;;;;;41.03;35.00;;;;;;;1.99;78.65;100184.69;5010963;28;20068;-82
2022/01/09 10:22:06;;;;;;;42.10;34.33;;;;;;;2.02;78.24;100195.84;5010081;28;20060;-83
2022/01/09 10:24:33;;;;;;;43.47;38.33;;;;;;;2.02;78.05;100215.94;5028365;28;20077;-82
2022/01/09 10:27:00;;;;;;;39.27;33.03;;;;;;;1.90;78.81;100202.63;5010967;28;20045;-83
2022/01/09 10:29:30;;;;;;;39.83;35.03;;;;;;;1.91;79.08;100213.94;5011063;28;20111;-82
2022/01/09 10:31:56;;;;;;;39.07;34.63;;;;;;;1.92;79.65;100208.63;5010688;28;20082;-82
2022/01/09 10:34:23;;;;;;;42.37;33.60;;;;;;;1.67;79.55;100175.19;5028459;28;20162;-82
2022/01/09 10:36:51;;;;;;;37.80;32.77;;;;;;;1.69;80.01;100183.78;5010438;28;20089;-82
2022/01/09 10:39:32;;;;;;;37.70;33.67;;;;;;;1.67;79.51;100176.97;5010399;28;20298;-81
2022/01/09 10:42:02;;;;;;;39.97;34.10;;;;;;;1.83;78.97;100180.38;5010596;28;20053;-82
2022/01/09 10:44:33;;;;;;;38.10;34.00;;;;;;;1.81;79.45;100191.88;5028517;28;20128;-81
2022/01/09 10:47:05;;;;;;;38.40;34.07;;;;;;;1.80;79.72;100195.44;5011202;28;20100;-82
2022/01/09 10:49:52;;;;;;;41.67;35.15;;;;;;;1.73;79.92;100174.00;5011687;28;20397;-82
2022/01/09 10:52:27;;;;;;;39.67;35.33;;;;;;;1.86;79.94;100174.94;5029773;28;20046;-83
2022/01/09 10:54:55;;;;;;;39.57;35.27;;;;;;;1.89;79.50;100177.41;5022132;28;20080;-83
2022/01/09 10:57:28;;;;;;;41.30;36.77;;;;;;;1.28;79.21;100077.19;5029118;28;20068;-84
2022/01/09 11:00:06;;;;;;;;;;;;;;;1.77;80.41;100182.50;5025400;28;20049;-83
2022/01/09 11:02:33;;;;;;;45.73;38.80;;;;;;;1.70;80.77;100179.44;5009222;28;19966;-83
2022/01/09 11:05:00;;;;;;;46.27;40.43;;;;;;;1.71;80.41;100176.69;5008262;28;20061;-84
2022/01/09 11:07:29;;;;;;;48.57;39.40;;;;;;;1.73;80.37;100170.56;5027993;28;20136;-83
2022/01/09 11:10:00;;;;;;;47.20;40.17;;;;;;;1.81;80.11;100177.00;5021731;28;20460;-84
2022/01/09 11:12:35;;;;;;;46.97;39.00;;;;;;;1.51;79.69;100136.97;5030045;28;20197;-86
2022/01/09 11:15:03;;;;;;;47.60;40.17;;;;;;;1.79;79.94;100173.63;5030224;28;20118;-84
2022/01/09 11:17:32;;;;;;;46.93;38.70;;;;;;;1.53;80.26;100128.09;5030277;28;20056;-85
2022/01/09 11:20:02;;;;;;;47.70;38.90;;;;;;;1.44;80.88;100128.63;5030518;28;20136;-86
2022/01/09 11:22:31;;;;;;;47.57;41.67;;;;;;;1.74;81.09;100174.84;5048222;28;20071;-85